sensor_id;sensor_type;location;lat;lon;timestamp;pressure;altitude;pressure_sealevel;temperature;humidity
18988;BME280;5494;51.796;10.952;2023-06-22T00:01:36;99308.56;;;20.60;100.00
18988;BME280;5494;51.796;10.952;2023-06-22T00:04:06;99310.78;;;20.64;100.00
18988;BME280;5494;51.796;10.952;2023-06-22T00:06:34;99306.47;;;20.63;100.00
18988;BME280;5494;51.796;10.952;2023-06-22T00:09:03;99308.69;;;20.58;100.00
18988;BME280;5494;51.796;10.952;2023-06-22T00:11:30;99310.19;;;20.61;100.00
18988;BME280;5494;51.796;10.952;2023-06-22T00:14:00;99308.38;;;20.52;100.00
18988;BME280;5494;51.796;10.952;2023-06-22T00:16:31;99309.59;;;20.48;100.00
18988;BME280;5494;51.796;10.952;2023-06-22T00:18:59;99303.16;;;20.40;100.00
18988;BME280;5494;51.796;10.952;2023-06-22T00:21:29;99308.72;;;20.37;100.00
18988;BME280;5494;51.796;10.952;2023-06-22T00:23:57;99318.81;;;20.32;100.00
18988;BME280;5494;51.796;10.952;2023-06-22T00:26:26;99319.19;;;20.28;100.00
18988;BME280;5494;51.796;10.952;2023-06-22T00:28:54;99321.28;;;20.24;100.00
18988;BME280;5494;51.796;10.952;2023-06-22T00:31:22;99325.00;;;20.22;100.00
18988;BME280;5494;51.796;10.952;2023-06-22T00:33:58;99320.81;;;20.19;100.00
18988;BME280;5494;51.796;10.952;2023-06-22T00:36:26;99328.88;;;20.18;100.00
18988;BME280;5494;51.796;10.952;2023-06-22T00:38:54;99341.25;;;20.17;100.00
18988;BME280;5494;51.796;10.952;2023-06-22T00:41:22;99350.00;;;20.18;100.00
18988;BME280;5494;51.796;10.952;2023-06-22T00:43:50;99350.25;;;20.15;100.00
18988;BME280;5494;51.796;10.952;2023-06-22T00:46:19;99360.25;;;20.11;100.00
18988;BME280;5494;51.796;10.952;2023-06-22T00:48:47;99363.84;;;20.10;100.00
18988;BME280;5494;51.796;10.952;2023-06-22T00:51:17;99353.66;;;20.05;100.00
18988;BME280;5494;51.796;10.952;2023-06-22T00:53:47;99349.91;;;20.08;100.00
18988;BME280;5494;51.796;10.952;2023-06-22T00:56:16;99353.06;;;20.02;100.00
18988;BME280;5494;51.796;10.952;2023-06-22T00:58:46;99340.13;;;19.99;100.00
18988;BME280;5494;51.796;10.952;2023-06-22T01:01:16;99340.84;;;20.01;100.00
18988;BME280;5494;51.796;10.952;2023-06-22T01:03:44;99330.28;;;20.01;100.00
18988;BME280;5494;51.796;10.952;2023-06-22T01:06:25;99324.28;;;19.99;100.00
18988;BME280;5494;51.796;10.952;2023-06-22T01:09:02;99318.69;;;19.92;100.00
18988;BME280;5494;51.796;10.952;2023-06-22T01:11:41;99320.63;;;19.90;100.00
18988;BME280;5494;51.796;10.952;2023-06-22T01:14:19;99311.41;;;19.85;100.00
18988;BME280;5494;51.796;10.952;2023-06-22T01:16:54;99311.16;;;19.88;100.00
18988;BME280;5494;51.796;10.952;2023-06-22T01:19:42;99302.94;;;19.81;100.00
18988;BME280;5494;51.796;10.952;2023-06-22T01:22:16;99310.50;;;19.75;100.00
18988;BME280;5494;51.796;10.952;2023-06-22T01:24:59;99311.47;;;19.74;100.00
18988;BME280;5494;51.796;10.952;2023-06-22T01:27:40;99304.63;;;19.71;100.00
18988;BME280;5494;51.796;10.952;2023-06-22T01:30:18;99309.09;;;19.71;100.00
18988;BME280;5494;51.796;10.952;2023-06-22T01:32:48;99303.94;;;19.69;100.00
18988;BME280;5494;51.796;10.952;2023-06-22T01:35:18;99296.16;;;19.67;100.00
18988;BME280;5494;51.796;10.952;2023-06-22T01:37:48;99298.56;;;19.71;100.00
18988;BME280;5494;51.796;10.952;2023-06-22T01:40:19;99293.28;;;19.71;100.00
18988;BME280;5494;51.796;10.952;2023-06-22T01:42:50;99296.88;;;19.70;100.00
18988;BME280;5494;51.796;10.952;2023-06-22T01:45:21;99290.56;;;19.61;100.00
18988;BME280;5494;51.796;10.952;2023-06-22T01:47:49;99290.09;;;19.56;100.00
18988;BME280;5494;51.796;10.952;2023-06-22T01:50:18;99292.88;;;19.54;100.00
18988;BME280;5494;51.796;10.952;2023-06-22T01:52:46;99301.28;;;19.48;100.00
18988;BME280;5494;51.796;10.952;2023-06-22T01:55:14;99296.34;;;19.44;100.00
18988;BME280;5494;51.796;10.952;2023-06-22T01:57:42;99298.63;;;19.37;100.00
18988;BME280;5494;51.796;10.952;2023-06-22T02:00:14;99289.19;;;19.35;100.00
18988;BME280;5494;51.796;10.952;2023-06-22T02:02:57;99283.78;;;19.36;100.00
18988;BME280;5494;51.796;10.952;2023-06-22T02:05:34;99277.69;;;19.36;100.00
18988;BME280;5494;51.796;10.952;2023-06-22T02:08:09;99281.03;;;19.38;100.00
18988;BME280;5494;51.796;10.952;2023-06-22T02:10:41;99285.59;;;19.36;100.00
18988;BME280;5494;51.796;10.952;2023-06-22T02:13:14;99278.50;;;19.36;100.00
18988;BME280;5494;51.796;10.952;2023-06-22T02:15:43;99277.53;;;19.37;100.00
18988;BME280;5494;51.796;10.952;2023-06-22T02:18:13;99276.47;;;19.40;100.00
18988;BME280;5494;51.796;10.952;2023-06-22T02:20:42;99282.69;;;19.39;100.00
18988;BME280;5494;51.796;10.952;2023-06-22T02:23:10;99281.03;;;19.38;100.00
18988;BME280;5494;51.796;10.952;2023-06-22T02:25:38;99294.13;;;19.28;100.00
18988;BME280;5494;51.796;10.952;2023-06-22T02:28:06;99292.06;;;19.32;100.00
18988;BME280;5494;51.796;10.952;2023-06-22T02:30:34;99289.06;;;19.36;100.00
18988;BME280;5494;51.796;10.952;2023-06-22T02:33:02;99285.72;;;19.34;100.00
18988;BME280;5494;51.796;10.952;2023-06-22T02:35:32;99295.44;;;19.34;100.00
18988;BME280;5494;51.796;10.952;2023-06-22T02:38:04;99293.19;;;19.29;100.00
18988;BME280;5494;51.796;10.952;2023-06-22T02:40:32;99295.09;;;19.27;100.00
18988;BME280;5494;51.796;10.952;2023-06-22T02:43:00;99295.81;;;19.29;100.00
18988;BME280;5494;51.796;10.952;2023-06-22T02:45:30;99291.00;;;19.34;100.00
18988;BME280;5494;51.796;10.952;2023-06-22T02:47:58;99293.25;;;19.39;100.00
18988;BME280;5494;51.796;10.952;2023-06-22T02:50:26;99299.81;;;19.44;100.00
18988;BME280;5494;51.796;10.952;2023-06-22T02:52:56;99294.41;;;19.46;100.00
18988;BME280;5494;51.796;10.952;2023-06-22T02:55:25;99311.13;;;19.46;100.00
18988;BME280;5494;51.796;10.952;2023-06-22T02:57:56;99311.13;;;19.46;100.00
18988;BME280;5494;51.796;10.952;2023-06-22T03:00:28;99305.72;;;19.48;100.00
18988;BME280;5494;51.796;10.952;2023-06-22T03:02:58;99311.94;;;19.47;100.00
18988;BME280;5494;51.796;10.952;2023-06-22T03:05:27;99322.25;;;19.50;100.00
18988;BME280;5494;51.796;10.952;2023-06-22T03:07:59;99328.94;;;19.54;100.00
18988;BME280;5494;51.796;10.952;2023-06-22T03:10:30;99338.88;;;19.61;100.00
18988;BME280;5494;51.796;10.952;2023-06-22T03:12:58;99340.66;;;19.61;100.00
18988;BME280;5494;51.796;10.952;2023-06-22T03:15:26;99344.59;;;19.66;100.00
18988;BME280;5494;51.796;10.952;2023-06-22T03:17:56;99341.47;;;19.73;100.00
18988;BME280;5494;51.796;10.952;2023-06-22T03:20:24;99345.91;;;19.72;100.00
18988;BME280;5494;51.796;10.952;2023-06-22T03:22:54;99340.00;;;19.80;100.00
18988;BME280;5494;51.796;10.952;2023-06-22T03:25:24;99344.25;;;19.92;100.00
18988;BME280;5494;51.796;10.952;2023-06-22T03:27:53;99339.44;;;19.97;100.00
18988;BME280;5494;51.796;10.952;2023-06-22T03:30:22;99345.16;;;20.02;100.00
18988;BME280;5494;51.796;10.952;2023-06-22T03:32:50;99346.25;;;19.99;100.00
18988;BME280;5494;51.796;10.952;2023-06-22T03:35:19;99344.19;;;20.03;100.00
18988;BME280;5494;51.796;10.952;2023-06-22T03:37:47;99351.59;;;20.09;100.00
18988;BME280;5494;51.796;10.952;2023-06-22T03:40:18;99354.00;;;20.12;100.00
18988;BME280;5494;51.796;10.952;2023-06-22T03:42:48;99359.41;;;20.11;100.00
18988;BME280;5494;51.796;10.952;2023-06-22T03:45:16;99356.88;;;20.09;100.00
18988;BME280;5494;51.796;10.952;2023-06-22T03:47:49;99369.31;;;20.18;100.00
18988;BME280;5494;51.796;10.952;2023-06-22T03:50:17;99366.69;;;20.18;100.00
18988;BME280;5494;51.796;10.952;2023-06-22T03:52:47;99368.22;;;20.21;100.00
18988;BME280;5494;51.796;10.952;2023-06-22T03:55:15;99366.41;;;20.21;100.00
18988;BME280;5494;51.796;10.952;2023-06-22T03:57:44;99371.16;;;20.27;100.00
18988;BME280;5494;51.796;10.952;2023-06-22T04:00:14;99370.91;;;20.30;100.00
18988;BME280;5494;51.796;10.952;2023-06-22T04:02:43;99355.19;;;20.29;100.00
18988;BME280;5494;51.796;10.952;2023-06-22T04:05:11;99368.88;;;20.34;100.00
18988;BME280;5494;51.796;10.952;2023-06-22T04:07:40;99356.97;;;20.39;100.00
18988;BME280;5494;51.796;10.952;2023-06-22T04:10:09;99357.53;;;20.43;100.00
18988;BME280;5494;51.796;10.952;2023-06-22T04:12:39;99352.38;;;20.41;100.00
18988;BME280;5494;51.796;10.952;2023-06-22T04:15:08;99353.81;;;20.46;100.00
18988;BME280;5494;51.796;10.952;2023-06-22T04:17:38;99355.50;;;20.47;100.00
18988;BME280;5494;51.796;10.952;2023-06-22T04:20:08;99348.25;;;20.49;100.00
18988;BME280;5494;51.796;10.952;2023-06-22T04:22:36;99346.50;;;20.59;100.00
18988;BME280;5494;51.796;10.952;2023-06-22T04:25:06;99330.38;;;20.62;100.00
18988;BME280;5494;51.796;10.952;2023-06-22T04:27:35;99331.81;;;20.66;100.00
18988;BME280;5494;51.796;10.952;2023-06-22T04:30:06;99321.91;;;20.68;100.00
18988;BME280;5494;51.796;10.952;2023-06-22T04:32:34;99329.47;;;20.72;100.00
18988;BME280;5494;51.796;10.952;2023-06-22T04:35:06;99322.25;;;20.84;100.00
18988;BME280;5494;51.796;10.952;2023-06-22T04:37:34;99323.41;;;20.91;100.00
18988;BME280;5494;51.796;10.952;2023-06-22T04:40:03;99315.06;;;20.96;100.00
18988;BME280;5494;51.796;10.952;2023-06-22T04:42:35;99314.38;;;21.03;100.00
18988;BME280;5494;51.796;10.952;2023-06-22T04:45:04;99314.97;;;21.07;100.00
18988;BME280;5494;51.796;10.952;2023-06-22T04:47:32;99307.06;;;21.16;100.00
18988;BME280;5494;51.796;10.952;2023-06-22T04:50:00;99306.00;;;21.29;100.00
18988;BME280;5494;51.796;10.952;2023-06-22T04:52:33;99296.25;;;21.39;100.00
18988;BME280;5494;51.796;10.952;2023-06-22T04:55:02;99294.59;;;21.47;100.00
18988;BME280;5494;51.796;10.952;2023-06-22T04:57:30;99303.34;;;21.67;100.00
18988;BME280;5494;51.796;10.952;2023-06-22T04:59:59;99303.19;;;21.78;100.00
18988;BME280;5494;51.796;10.952;2023-06-22T05:02:38;99302.34;;;21.87;100.00
18988;BME280;5494;51.796;10.952;2023-06-22T05:05:07;99293.03;;;22.03;100.00
18988;BME280;5494;51.796;10.952;2023-06-22T05:07:42;99293.44;;;22.08;100.00
18988;BME280;5494;51.796;10.952;2023-06-22T05:10:12;99289.81;;;22.09;100.00
18988;BME280;5494;51.796;10.952;2023-06-22T05:12:41;99283.13;;;21.95;100.00
18988;BME280;5494;51.796;10.952;2023-06-22T05:15:10;99287.59;;;21.75;100.00
18988;BME280;5494;51.796;10.952;2023-06-22T05:17:39;99279.25;;;21.60;100.00
18988;BME280;5494;51.796;10.952;2023-06-22T05:20:11;99276.50;;;21.43;100.00
18988;BME280;5494;51.796;10.952;2023-06-22T05:22:41;99283.00;;;21.39;100.00
18988;BME280;5494;51.796;10.952;2023-06-22T05:25:11;99288.16;;;21.31;100.00
18988;BME280;5494;51.796;10.952;2023-06-22T05:27:39;99281.22;;;21.49;100.00
18988;BME280;5494;51.796;10.952;2023-06-22T05:30:09;99286.75;;;21.65;100.00
18988;BME280;5494;51.796;10.952;2023-06-22T05:32:38;99273.81;;;21.52;100.00
18988;BME280;5494;51.796;10.952;2023-06-22T05:35:07;99267.97;;;21.39;100.00
18988;BME280;5494;51.796;10.952;2023-06-22T05:37:35;99278.00;;;21.36;100.00
18988;BME280;5494;51.796;10.952;2023-06-22T05:40:10;99285.38;;;21.61;100.00
18988;BME280;5494;51.796;10.952;2023-06-22T05:42:39;99289.97;;;21.69;100.00
18988;BME280;5494;51.796;10.952;2023-06-22T05:45:07;99288.31;;;21.77;100.00
18988;BME280;5494;51.796;10.952;2023-06-22T05:47:35;99287.59;;;21.75;100.00
18988;BME280;5494;51.796;10.952;2023-06-22T05:50:05;99287.88;;;21.91;100.00
18988;BME280;5494;51.796;10.952;2023-06-22T05:52:39;99289.56;;;21.83;100.00
18988;BME280;5494;51.796;10.952;2023-06-22T05:55:09;99287.31;;;21.78;100.00
18988;BME280;5494;51.796;10.952;2023-06-22T05:57:37;99288.31;;;21.96;100.00
18988;BME280;5494;51.796;10.952;2023-06-22T06:00:07;99298.16;;;21.94;100.00
18988;BME280;5494;51.796;10.952;2023-06-22T06:02:37;99297.19;;;21.95;100.00
18988;BME280;5494;51.796;10.952;2023-06-22T06:05:11;99300.28;;;21.91;100.00
18988;BME280;5494;51.796;10.952;2023-06-22T06:07:41;99299.44;;;22.00;100.00
18988;BME280;5494;51.796;10.952;2023-06-22T06:10:11;99304.59;;;22.11;100.00
18988;BME280;5494;51.796;10.952;2023-06-22T06:12:40;99301.81;;;22.13;100.00
18988;BME280;5494;51.796;10.952;2023-06-22T06:15:09;99297.88;;;22.07;100.00
18988;BME280;5494;51.796;10.952;2023-06-22T06:17:46;99299.97;;;21.94;100.00
18988;BME280;5494;51.796;10.952;2023-06-22T06:20:15;99304.16;;;22.06;100.00
18988;BME280;5494;51.796;10.952;2023-06-22T06:22:43;99295.94;;;21.99;100.00
18988;BME280;5494;51.796;10.952;2023-06-22T06:25:13;99297.47;;;22.12;100.00
18988;BME280;5494;51.796;10.952;2023-06-22T06:27:46;99297.06;;;22.07;100.00
18988;BME280;5494;51.796;10.952;2023-06-22T06:30:17;99292.84;;;22.14;100.00
18988;BME280;5494;51.796;10.952;2023-06-22T06:32:46;99282.88;;;21.98;100.00
18988;BME280;5494;51.796;10.952;2023-06-22T06:35:15;99290.66;;;21.99;100.00
18988;BME280;5494;51.796;10.952;2023-06-22T06:37:45;99287.81;;;22.30;100.00
18988;BME280;5494;51.796;10.952;2023-06-22T06:40:17;99281.19;;;22.53;100.00
18988;BME280;5494;51.796;10.952;2023-06-22T06:42:47;99288.75;;;22.75;100.00
18988;BME280;5494;51.796;10.952;2023-06-22T06:45:19;99289.44;;;23.05;98.91
18988;BME280;5494;51.796;10.952;2023-06-22T06:47:50;99295.06;;;23.20;94.80
18988;BME280;5494;51.796;10.952;2023-06-22T06:50:19;99288.34;;;23.43;92.21
18988;BME280;5494;51.796;10.952;2023-06-22T06:52:48;99288.00;;;23.55;89.44
18988;BME280;5494;51.796;10.952;2023-06-22T06:55:21;99292.94;;;23.50;89.16
18988;BME280;5494;51.796;10.952;2023-06-22T06:57:52;99286.13;;;23.74;86.21
18988;BME280;5494;51.796;10.952;2023-06-22T07:00:21;99281.53;;;24.02;83.05
18988;BME280;5494;51.796;10.952;2023-06-22T07:02:49;99281.53;;;24.02;84.11
18988;BME280;5494;51.796;10.952;2023-06-22T07:05:17;99275.59;;;24.25;82.97
18988;BME280;5494;51.796;10.952;2023-06-22T07:07:48;99278.25;;;23.82;88.43
18988;BME280;5494;51.796;10.952;2023-06-22T07:10:16;99281.16;;;24.40;82.95
18988;BME280;5494;51.796;10.952;2023-06-22T07:12:46;99277.25;;;24.26;82.34
18988;BME280;5494;51.796;10.952;2023-06-22T07:15:14;99284.19;;;24.02;84.86
18988;BME280;5494;51.796;10.952;2023-06-22T07:17:42;99278.25;;;24.08;83.59
18988;BME280;5494;51.796;10.952;2023-06-22T07:20:12;99287.31;;;23.71;86.90
18988;BME280;5494;51.796;10.952;2023-06-22T07:22:43;99286.81;;;23.58;88.19
18988;BME280;5494;51.796;10.952;2023-06-22T07:25:12;99286.31;;;23.54;87.49
18988;BME280;5494;51.796;10.952;2023-06-22T07:27:58;99285.91;;;23.67;87.76
18988;BME280;5494;51.796;10.952;2023-06-22T07:30:28;99284.00;;;24.21;83.78
18988;BME280;5494;51.796;10.952;2023-06-22T07:32:58;99292.28;;;23.92;81.42
18988;BME280;5494;51.796;10.952;2023-06-22T07:35:33;99294.03;;;23.66;88.16
18988;BME280;5494;51.796;10.952;2023-06-22T07:38:01;99293.59;;;23.52;91.97
18988;BME280;5494;51.796;10.952;2023-06-22T07:40:32;99291.41;;;23.48;88.60
18988;BME280;5494;51.796;10.952;2023-06-22T07:43:02;99291.56;;;23.64;91.10
18988;BME280;5494;51.796;10.952;2023-06-22T07:45:31;99291.09;;;23.69;89.66
18988;BME280;5494;51.796;10.952;2023-06-22T07:48:00;99283.41;;;23.66;91.98
18988;BME280;5494;51.796;10.952;2023-06-22T07:50:28;99286.28;;;23.90;86.97
18988;BME280;5494;51.796;10.952;2023-06-22T07:52:58;99291.53;;;23.82;86.03
18988;BME280;5494;51.796;10.952;2023-06-22T07:55:26;99284.25;;;23.66;89.91
18988;BME280;5494;51.796;10.952;2023-06-22T07:57:55;99280.63;;;23.49;92.36
18988;BME280;5494;51.796;10.952;2023-06-22T08:00:27;99276.34;;;23.74;94.38
18988;BME280;5494;51.796;10.952;2023-06-22T08:02:55;99270.63;;;23.87;91.97
18988;BME280;5494;51.796;10.952;2023-06-22T08:05:24;99271.22;;;23.55;96.24
18988;BME280;5494;51.796;10.952;2023-06-22T08:07:52;99277.56;;;23.27;100.00
18988;BME280;5494;51.796;10.952;2023-06-22T08:10:21;99270.69;;;23.51;98.91
18988;BME280;5494;51.796;10.952;2023-06-22T08:12:50;99272.38;;;23.96;94.81
18988;BME280;5494;51.796;10.952;2023-06-22T08:15:18;99262.41;;;24.50;89.24
18988;BME280;5494;51.796;10.952;2023-06-22T08:17:48;99263.13;;;24.94;88.36
18988;BME280;5494;51.796;10.952;2023-06-22T08:20:16;99260.31;;;25.03;86.21
18988;BME280;5494;51.796;10.952;2023-06-22T08:22:44;99265.06;;;25.50;87.84
18988;BME280;5494;51.796;10.952;2023-06-22T08:25:13;99266.75;;;25.83;80.69
18988;BME280;5494;51.796;10.952;2023-06-22T08:27:45;99266.41;;;26.66;75.22
18988;BME280;5494;51.796;10.952;2023-06-22T08:30:14;99271.88;;;26.25;75.83
18988;BME280;5494;51.796;10.952;2023-06-22T08:32:42;99267.72;;;26.07;78.22
18988;BME280;5494;51.796;10.952;2023-06-22T08:35:12;99270.50;;;26.30;76.27
18988;BME280;5494;51.796;10.952;2023-06-22T08:37:43;99284.56;;;25.91;79.09
18988;BME280;5494;51.796;10.952;2023-06-22T08:40:18;99276.72;;;25.89;79.47
18988;BME280;5494;51.796;10.952;2023-06-22T08:42:48;99273.34;;;25.31;84.55
18988;BME280;5494;51.796;10.952;2023-06-22T08:45:16;99269.66;;;25.16;88.75
18988;BME280;5494;51.796;10.952;2023-06-22T08:47:44;99263.34;;;25.33;87.00
18988;BME280;5494;51.796;10.952;2023-06-22T08:50:14;99268.56;;;25.83;83.53
18988;BME280;5494;51.796;10.952;2023-06-22T08:52:42;99255.69;;;26.74;76.63
18988;BME280;5494;51.796;10.952;2023-06-22T08:55:15;99264.75;;;27.27;74.21
18988;BME280;5494;51.796;10.952;2023-06-22T08:57:43;99257.06;;;27.55;70.14
18988;BME280;5494;51.796;10.952;2023-06-22T09:00:13;99261.03;;;27.36;70.58
18988;BME280;5494;51.796;10.952;2023-06-22T09:02:43;99263.69;;;27.13;69.88
18988;BME280;5494;51.796;10.952;2023-06-22T09:05:14;99255.78;;;27.20;70.40
18988;BME280;5494;51.796;10.952;2023-06-22T09:07:42;99256.72;;;27.58;68.46
18988;BME280;5494;51.796;10.952;2023-06-22T09:10:10;99253.97;;;26.42;73.04
18988;BME280;5494;51.796;10.952;2023-06-22T09:12:39;99244.47;;;27.63;67.01
18988;BME280;5494;51.796;10.952;2023-06-22T09:15:08;99245.69;;;28.42;62.82
18988;BME280;5494;51.796;10.952;2023-06-22T09:17:54;99239.34;;;28.29;62.76
18988;BME280;5494;51.796;10.952;2023-06-22T09:20:24;99234.06;;;28.65;62.47
18988;BME280;5494;51.796;10.952;2023-06-22T09:22:52;99226.25;;;29.35;58.97
18988;BME280;5494;51.796;10.952;2023-06-22T09:25:20;99226.09;;;30.13;55.53
18988;BME280;5494;51.796;10.952;2023-06-22T09:27:48;99213.28;;;29.88;55.79
18988;BME280;5494;51.796;10.952;2023-06-22T09:30:16;99215.63;;;30.25;55.57
18988;BME280;5494;51.796;10.952;2023-06-22T09:32:44;99217.69;;;29.95;56.22
18988;BME280;5494;51.796;10.952;2023-06-22T09:35:12;99221.44;;;28.29;62.62
18988;BME280;5494;51.796;10.952;2023-06-22T09:37:42;99224.13;;;27.62;65.82
18988;BME280;5494;51.796;10.952;2023-06-22T09:40:11;99221.09;;;28.17;64.88
18988;BME280;5494;51.796;10.952;2023-06-22T09:42:41;99210.13;;;28.42;63.98
18988;BME280;5494;51.796;10.952;2023-06-22T09:45:10;99210.28;;;29.48;58.51
18988;BME280;5494;51.796;10.952;2023-06-22T09:47:38;99200.13;;;29.22;57.16
18988;BME280;5494;51.796;10.952;2023-06-22T09:50:07;99199.81;;;29.53;58.15
18988;BME280;5494;51.796;10.952;2023-06-22T09:52:35;99193.06;;;29.85;53.96
18988;BME280;5494;51.796;10.952;2023-06-22T09:55:08;99192.56;;;30.03;52.96
18988;BME280;5494;51.796;10.952;2023-06-22T09:57:36;99188.81;;;29.42;53.60
18988;BME280;5494;51.796;10.952;2023-06-22T10:00:06;99184.22;;;29.35;54.92
18988;BME280;5494;51.796;10.952;2023-06-22T10:02:38;99177.13;;;29.07;57.04
18988;BME280;5494;51.796;10.952;2023-06-22T10:05:07;99185.97;;;29.28;54.86
18988;BME280;5494;51.796;10.952;2023-06-22T10:07:36;99177.25;;;29.41;56.03
18988;BME280;5494;51.796;10.952;2023-06-22T10:10:09;99180.19;;;28.53;59.24
18988;BME280;5494;51.796;10.952;2023-06-22T10:12:42;99175.38;;;28.63;58.13
18988;BME280;5494;51.796;10.952;2023-06-22T10:15:11;99175.00;;;28.66;58.65
18988;BME280;5494;51.796;10.952;2023-06-22T10:17:40;99172.81;;;28.91;58.54
18988;BME280;5494;51.796;10.952;2023-06-22T10:20:09;99176.50;;;28.54;59.74
18988;BME280;5494;51.796;10.952;2023-06-22T10:22:39;99180.38;;;28.51;58.76
18988;BME280;5494;51.796;10.952;2023-06-22T10:25:10;99175.69;;;28.53;60.94
18988;BME280;5494;51.796;10.952;2023-06-22T10:27:39;99169.13;;;28.92;57.65
18988;BME280;5494;51.796;10.952;2023-06-22T10:30:09;99171.69;;;28.79;60.63
18988;BME280;5494;51.796;10.952;2023-06-22T10:32:41;99159.97;;;28.65;58.92
18988;BME280;5494;51.796;10.952;2023-06-22T10:35:10;99169.31;;;27.96;61.95
18988;BME280;5494;51.796;10.952;2023-06-22T10:37:41;99171.63;;;28.43;60.42
18988;BME280;5494;51.796;10.952;2023-06-22T10:40:13;99164.19;;;28.24;63.18
18988;BME280;5494;51.796;10.952;2023-06-22T10:42:42;99175.22;;;28.50;61.63
18988;BME280;5494;51.796;10.952;2023-06-22T10:45:11;99174.03;;;28.38;60.03
18988;BME280;5494;51.796;10.952;2023-06-22T10:47:39;99169.53;;;28.24;62.29
18988;BME280;5494;51.796;10.952;2023-06-22T10:50:09;99158.06;;;28.44;62.84
18988;BME280;5494;51.796;10.952;2023-06-22T10:52:38;99164.88;;;28.62;65.54
18988;BME280;5494;51.796;10.952;2023-06-22T10:55:07;99148.50;;;28.06;65.44
18988;BME280;5494;51.796;10.952;2023-06-22T10:57:37;99142.25;;;27.47;65.93
18988;BME280;5494;51.796;10.952;2023-06-22T11:00:07;99136.91;;;27.84;67.23
18988;BME280;5494;51.796;10.952;2023-06-22T11:02:37;99132.66;;;27.90;65.25
18988;BME280;5494;51.796;10.952;2023-06-22T11:05:07;99135.31;;;27.90;66.15
18988;BME280;5494;51.796;10.952;2023-06-22T11:07:35;99129.59;;;28.22;62.84
18988;BME280;5494;51.796;10.952;2023-06-22T11:10:04;99132.34;;;28.29;61.83
18988;BME280;5494;51.796;10.952;2023-06-22T11:12:32;99134.56;;;27.81;61.96
18988;BME280;5494;51.796;10.952;2023-06-22T11:15:02;99131.25;;;27.94;63.92
18988;BME280;5494;51.796;10.952;2023-06-22T11:17:30;99128.50;;;27.87;63.59
18988;BME280;5494;51.796;10.952;2023-06-22T11:19:58;99131.44;;;27.63;62.96
18988;BME280;5494;51.796;10.952;2023-06-22T11:22:27;99125.84;;;28.16;61.16
18988;BME280;5494;51.796;10.952;2023-06-22T11:24:56;99124.44;;;27.62;62.77
18988;BME280;5494;51.796;10.952;2023-06-22T11:27:25;99117.72;;;27.95;62.42
18988;BME280;5494;51.796;10.952;2023-06-22T11:29:52;99107.22;;;27.79;61.74
18988;BME280;5494;51.796;10.952;2023-06-22T11:32:22;99101.59;;;28.18;61.82
18988;BME280;5494;51.796;10.952;2023-06-22T11:34:50;99121.34;;;28.53;59.60
18988;BME280;5494;51.796;10.952;2023-06-22T11:37:18;99107.34;;;28.36;56.41
18988;BME280;5494;51.796;10.952;2023-06-22T11:39:47;99110.78;;;28.66;58.88
18988;BME280;5494;51.796;10.952;2023-06-22T11:42:18;99113.44;;;28.66;55.03
18988;BME280;5494;51.796;10.952;2023-06-22T11:44:47;99100.69;;;28.47;56.66
18988;BME280;5494;51.796;10.952;2023-06-22T11:47:15;99094.50;;;28.46;57.30
18988;BME280;5494;51.796;10.952;2023-06-22T11:49:48;99092.81;;;28.60;55.94
18988;BME280;5494;51.796;10.952;2023-06-22T11:52:16;99092.44;;;28.84;53.67
18988;BME280;5494;51.796;10.952;2023-06-22T11:54:46;99087.66;;;28.58;56.85
18988;BME280;5494;51.796;10.952;2023-06-22T11:57:14;99099.19;;;28.23;53.87
18988;BME280;5494;51.796;10.952;2023-06-22T11:59:42;99077.72;;;28.16;54.63
18988;BME280;5494;51.796;10.952;2023-06-22T12:02:10;99079.66;;;27.78;54.73
18988;BME280;5494;51.796;10.952;2023-06-22T12:04:38;99076.16;;;27.63;55.29
18988;BME280;5494;51.796;10.952;2023-06-22T12:07:08;99060.41;;;27.68;57.21
18988;BME280;5494;51.796;10.952;2023-06-22T12:09:36;99046.28;;;27.89;56.39
18988;BME280;5494;51.796;10.952;2023-06-22T12:12:05;99048.78;;;27.91;54.86
18988;BME280;5494;51.796;10.952;2023-06-22T12:14:33;99050.44;;;27.92;55.99
18988;BME280;5494;51.796;10.952;2023-06-22T12:17:02;99045.63;;;28.02;56.22
18988;BME280;5494;51.796;10.952;2023-06-22T12:19:30;99038.13;;;28.27;56.29
18988;BME280;5494;51.796;10.952;2023-06-22T12:21:58;99046.22;;;27.82;57.64
18988;BME280;5494;51.796;10.952;2023-06-22T12:24:28;99031.25;;;27.88;57.80
18988;BME280;5494;51.796;10.952;2023-06-22T12:26:56;99027.63;;;28.10;55.91
18988;BME280;5494;51.796;10.952;2023-06-22T12:29:24;99018.91;;;28.38;56.13
18988;BME280;5494;51.796;10.952;2023-06-22T12:31:52;99012.03;;;28.50;54.97
18988;BME280;5494;51.796;10.952;2023-06-22T12:34:20;99015.34;;;28.52;53.82
18988;BME280;5494;51.796;10.952;2023-06-22T12:36:48;99004.75;;;28.44;54.83
18988;BME280;5494;51.796;10.952;2023-06-22T12:39:16;99001.75;;;27.96;55.70
18988;BME280;5494;51.796;10.952;2023-06-22T12:41:46;99000.13;;;28.31;54.76
18988;BME280;5494;51.796;10.952;2023-06-22T12:44:14;98989.16;;;28.26;55.73
18988;BME280;5494;51.796;10.952;2023-06-22T12:46:42;98990.13;;;28.04;55.87
18988;BME280;5494;51.796;10.952;2023-06-22T12:49:10;98979.59;;;28.17;54.33
18988;BME280;5494;51.796;10.952;2023-06-22T12:51:40;98999.09;;;27.96;55.51
18988;BME280;5494;51.796;10.952;2023-06-22T12:54:09;99005.59;;;28.08;55.12
18988;BME280;5494;51.796;10.952;2023-06-22T12:56:38;98988.72;;;28.44;56.71
18988;BME280;5494;51.796;10.952;2023-06-22T12:59:09;98983.94;;;28.39;54.33
18988;BME280;5494;51.796;10.952;2023-06-22T13:01:37;98977.00;;;28.24;55.23
18988;BME280;5494;51.796;10.952;2023-06-22T13:04:06;98967.69;;;28.62;52.95
18988;BME280;5494;51.796;10.952;2023-06-22T13:06:34;98976.84;;;28.74;53.83
18988;BME280;5494;51.796;10.952;2023-06-22T13:09:02;98960.97;;;28.73;52.40